• Join FlightAware (Why Join?)
  • Login
  • US Flag 
05:46AM EDT


 

Airport Tracker/Info


-or-


 

Live Flight TrackerFlight Track Log ✈ DAL2278 ✈ 03-May-2013 ✈ KSLC - KSAN

Flight Track Log - Related Links

Times and Time Zones

All times are in EDT time to prevent confusion due to time zone crossing. See the DAL2278 flight status page for this flight to view local times or setup timezone preferences in your user account.

Time Position Orientation Groundspeed Altitude Reporting Facility
EDT Latitude Longitude Course Direction KTS MPH feet Rate Location/Type
07:11PM 40.8108 -112.0006 201° Southwest 167 192 5,200  Level Salt Lake Center
07:11PM 40.8200 -112.0144 311° West 170 196 5,900 1,740 Climbing Salt Lake Center
07:12PM 40.8269 -112.0942 277° West 232 267 7,500 1,980 Climbing Salt Lake Center
07:13PM 40.8222 -112.1492 264° West 264 304 9,300 3,120 Climbing Salt Lake Center
07:13PM 40.8158 -112.1917 259° West 275 316 10,700 2,460 Climbing Salt Lake Center
07:14PM 40.5373 -112.3035 192° South  Level FlightAware Approximate
07:14PM 40.7908 -112.2447 238° Southwest 297 342 11,900  Level Salt Lake Center
07:15PM 40.4209 -112.3353 192° South  Level FlightAware Approximate
07:15PM 40.6814 -112.2908 198° South 356 410 14,700  Level Salt Lake Center
07:16PM 40.3080 -112.3710 201° Southwest  Level FlightAware Approximate
07:16PM 40.5772 -112.3089 188° South 377 434 17,300  Level Salt Lake Center
07:17PM 40.4697 -112.3308 189° South 392 451 19,900 2,340 Climbing Salt Lake Center
07:18PM 40.3594 -112.3553 190° South 403 464 22,100 2,340 Climbing Salt Lake Center
07:19PM 40.2556 -112.4167 204° Southwest 409 471 24,700 2,700 Climbing Salt Lake Center
07:20PM 40.1631 -112.4822 208° Southwest 376 433 27,700 1,920 Climbing Salt Lake Center
07:21PM 40.0675 -112.5497 208° Southwest 399 459 28,700 1,020 Climbing Salt Lake Center
07:22PM 39.9456 -112.6358 208° Southwest 419 482 29,800 1,440 Climbing Salt Lake Center
07:23PM 39.8425 -112.7064 208° Southwest 418 481 31,700 1,020 Climbing Salt Lake Center
07:24PM 39.7544 -112.7675 208° Southwest 413 475 32,000 120 Climbing Salt Lake Center
07:25PM 39.6281 -112.8378 203° Southwest 416 479 32,000  Level Salt Lake Center
07:26PM 39.5133 -112.8739 194° South 423 487 32,000  Level Salt Lake Center
07:27PM 39.3967 -112.9119 194° South 431 496 32,000  Level Salt Lake Center
07:28PM 39.2806 -112.9511 195° South 431 496 32,000  Level Salt Lake Center
07:29PM 39.1636 -112.9894 194° South 434 499 32,000  Level Salt Lake Center
07:30PM 39.0472 -113.0269 194° South 432 497 32,000 600 Level Salt Lake Center
07:31PM 38.9292 -113.0622 193° South 435 501 33,300 1,440 Climbing Salt Lake Center
07:32PM 38.7906 -113.1072 194° South 431 496 35,000 1,260 Climbing Salt Lake Center
07:33PM 38.6767 -113.1450 195° South 426 490 36,000 480 Climbing Salt Lake Center
07:34PM 38.5642 -113.1797 194° South 420 483 36,000  Level Salt Lake Center
07:35PM 38.4508 -113.2164 194° South 420 483 36,000  Level Salt Lake Center
07:36PM 38.3358 -113.2517 194° South 425 489 36,000  Level Salt Lake Center
07:37PM 38.2214 -113.2869 194° South 425 489 36,000  Level Salt Lake Center
07:38PM 38.0814 -113.3306 194° South 433 498 36,000  Level Salt Lake Center
07:39PM 37.9656 -113.3669 194° South 432 497 36,000  Level Salt Lake Center
07:41PM 37.8567 -113.4231 202° Southwest 426 490 36,000  Level Salt Lake Center
07:42PM 37.7578 -113.4992 211° Southwest 421 484 36,000  Level Salt Lake Center
07:43PM 37.6600 -113.5775 212° Southwest 420 483 36,000  Level Salt Lake Center
07:44PM 37.5622 -113.6550 212° Southwest 419 482 36,000  Level Salt Lake Center
07:45PM 37.4447 -113.7478 212° Southwest 418 481 36,000  Level Salt Lake Center
07:46PM 37.3467 -113.8253 212° Southwest 418 481 36,000  Level Salt Lake Center
07:47PM 37.2469 -113.9008 211° Southwest 420 483 36,000  Level Salt Lake Center
07:48PM 37.1478 -113.9786 212° Southwest 421 484 36,000  Level Salt Lake Center
07:49PM 37.0578 -114.0478 212° Southwest 422 486 36,000  Level Los Angeles Center
07:50PM 36.9575 -114.1261 212° Southwest 423 487 36,000  Level Los Angeles Center
07:51PM 36.8567 -114.2036 212° Southwest 424 488 36,000  Level Los Angeles Center
07:52PM 36.7572 -114.2811 212° Southwest 421 484 36,000  Level Los Angeles Center
07:53PM 36.6567 -114.3583 212° Southwest 422 486 36,000  Level Los Angeles Center
07:54PM 36.5353 -114.4508 211° Southwest 424 488 36,000  Level Los Angeles Center
07:55PM 36.4356 -114.5294 212° Southwest 424 488 36,000  Level Los Angeles Center
07:56PM 36.3333 -114.6067 211° Southwest 426 490 36,000  Level Los Angeles Center
07:57PM 36.2014 -114.6781 204° Southwest 428 493 36,000  Level Los Angeles Center
07:58PM 36.0908 -114.7381 204° Southwest 430 495 36,000  Level Los Angeles Center
07:59PM 35.9808 -114.7958 203° Southwest 428 493 36,000  Level Los Angeles Center
08:00PM 35.8492 -114.8681 204° Southwest 428 493 36,000  Level Los Angeles Center
08:01PM 35.7386 -114.9256 203° Southwest 428 493 36,000  Level Los Angeles Center
08:02PM 35.6286 -114.9844 204° Southwest 429 494 36,000  Level Los Angeles Center
08:03PM 35.5167 -115.0436 203° Southwest 434 499 36,000 -120 Level Los Angeles Center
08:04PM 35.4033 -115.1000 202° Southwest 438 504 35,800 -1,740 Descending Los Angeles Center
08:05PM 35.2892 -115.1525 201° Southwest 436 502 32,500 -2,760 Descending Los Angeles Center
08:06PM 35.1708 -115.2047 200° South 446 513 30,200 -1,260 Descending Los Angeles Center
08:07PM 35.0422 -115.2639 201° Southwest 449 517 30,000 -120 Descending Los Angeles Center
08:08PM 34.9139 -115.3217 200° South 445 512 30,000  Level Los Angeles Center
08:09PM 34.7989 -115.3733 200° South 442 509 30,000  Level Los Angeles Center
08:11PM 34.6828 -115.4250 200° South 442 509 30,000  Level Los Angeles Center
08:12PM 34.5633 -115.4803 201° Southwest 448 516 30,000 -480 Level Los Angeles Center
08:13PM 34.4469 -115.5303 200° South 445 512 29,100 -960 Descending Los Angeles Center
08:14PM 34.3292 -115.5839 201° Southwest 451 519 28,100 -540 Descending Los Angeles Center
08:15PM 34.1897 -115.6461 200° South 447 514 28,000 -60 Descending Los Angeles Center
08:16PM 34.0725 -115.6983 200° South 450 518 28,000  Level Los Angeles Center
08:17PM 33.9547 -115.7497 200° South 449 517 28,000 -300 Level Los Angeles Center
08:18PM 33.8386 -115.8014 200° South 446 513 27,400 -780 Descending Los Angeles Center
08:19PM 33.7269 -115.8517 201° Southwest 431 496 26,400 -1,020 Descending Los Angeles Center
08:20PM 33.6233 -115.8958 200° South 401 461 25,400 -1,200 Descending Los Angeles Center
08:21PM 33.5086 -115.9608 205° Southwest 388 447 24,000 -720 Descending Los Angeles Center
08:22PM 33.4483 -116.0617 234° Southwest 370 426 24,000 -1,200 Level Los Angeles Center
08:23PM 33.3881 -116.1639 235° Southwest 375 432 21,600 -2,400 Descending Los Angeles Center
08:24PM 33.3231 -116.2586 231° Southwest 373 429 19,100 -2,280 Descending Los Angeles Center
08:25PM 33.2319 -116.3119 206° Southwest 364 419 16,900 -2,220 Descending Los Angeles Center
08:26PM 33.1281 -116.3731 206° Southwest 353 406 14,600 -1,980 Descending Los Angeles Center
08:27PM 33.0497 -116.4189 206° Southwest 337 388 12,900 -1,440 Descending Los Angeles Center
08:28PM 32.9678 -116.4675 206° Southwest 332 382 11,700 -1,260 Descending Los Angeles Center
08:29PM 32.8936 -116.5131 207° Southwest 308 354 10,300 -1,380 Descending Los Angeles Center
08:30PM 32.8356 -116.6036 233° Southwest 297 342 8,900 -1,200 Descending Los Angeles Center
08:31PM 32.7956 -116.6844 240° Southwest 289 333 7,900 -1,260 Descending Los Angeles Center
08:32PM 32.7553 -116.7653 239° Southwest 286 329 6,300 -1,140 Descending Los Angeles Center
08:33PM 32.7189 -116.8403 240° Southwest 272 313 5,600 -900 Descending Los Angeles Center
08:34PM 32.6833 -116.9167 241° Southwest 230 265 4,500 -960 Descending Southern California TRACON
08:35PM 32.6833 -116.9667 270° West 196 226 3,700 -1,020 Descending Southern California TRACON
08:36PM 32.7000 -117.0167 292° West 169 194 2,600 -1,200 Descending Southern California TRACON